Time;durP1;ratioP1;P1;durP2;ratioP2;P2;SDS_P1;SDS_P2;PMS_P1;PMS_P2;Temp;Humidity;BMP_temperature;BMP_pressure;BME280_temperature;BME280_humidity;BME280_pressure;Samples;Min_cycle;Max_cycle;Signal;HPM_P1;HPM_P2
2022/11/18 00:00:00;;;;;;;1.2;1.2;;;;;;;8.3;100.0;99280;;;;
2022/11/18 00:01:08;;;;;;;1.2;1.2;;;;;;;8.3;100.0;99290;;;;
2022/11/18 00:02:00;;;;;;;1.2;1.2;;;;;;;8.3;100.0;99290;;;;
2022/11/18 00:03:00;;;;;;;1.2;1.2;;;;;;;8.4;100.0;99290;;;;
2022/11/18 00:04:00;;;;;;;1.2;1.2;;;;;;;8.4;100.0;99290;;;;
2022/11/18 00:05:00;;;;;;;1.2;1.2;;;;;;;8.3;100.0;99280;;;;
2022/11/18 00:06:00;;;;;;;1.2;1.2;;;;;;;8.3;100.0;99280;;;;
2022/11/18 00:07:00;;;;;;;1.2;1.2;;;;;;;8.2;100.0;99290;;;;
2022/11/18 00:08:00;;;;;;;1.2;1.2;;;;;;;8.2;100.0;99290;;;;
2022/11/18 00:09:00;;;;;;;1.2;1.2;;;;;;;8.4;100.0;99290;;;;
2022/11/18 00:10:00;;;;;;;1.2;1.2;;;;;;;8.4;100.0;99290;;;;
2022/11/18 00:11:04;;;;;;;1.2;1.2;;;;;;;8.3;100.0;99290;;;;
2022/11/18 00:15:00;;;;;;;1.2;1.2;;;;;;;8.2;100.0;99290;;;;
2022/11/18 00:16:01;;;;;;;1.2;1.2;;;;;;;8.2;100.0;99290;;;;
2022/11/18 00:17:01;;;;;;;1.2;1.2;;;;;;;8.1;100.0;99300;;;;
2022/11/18 00:18:00;;;;;;;1.2;1.2;;;;;;;8.1;100.0;99300;;;;
2022/11/18 00:19:00;;;;;;;1.2;1.2;;;;;;;8.2;100.0;99300;;;;
2022/11/18 00:20:00;;;;;;;1.2;1.2;;;;;;;8.2;100.0;99300;;;;
2022/11/18 00:21:04;;;;;;;1.2;1.2;;;;;;;8.1;100.0;99300;;;;
2022/11/18 00:22:00;;;;;;;1.2;1.2;;;;;;;8.1;100.0;99300;;;;
2022/11/18 00:23:00;;;;;;;1.2;1.2;;;;;;;8.2;100.0;99300;;;;
2022/11/18 00:24:00;;;;;;;1.2;1.2;;;;;;;8.2;100.0;99300;;;;
2022/11/18 00:25:00;;;;;;;1.2;1.2;;;;;;;8.1;100.0;99300;;;;
2022/11/18 00:26:01;;;;;;;1.2;1.2;;;;;;;8.1;100.0;99300;;;;
2022/11/18 00:27:00;;;;;;;1.2;1.2;;;;;;;8.2;100.0;99300;;;;
2022/11/18 00:28:00;;;;;;;1.2;1.2;;;;;;;8.2;100.0;99300;;;;
2022/11/18 00:29:00;;;;;;;1.2;1.2;;;;;;;8.3;100.0;99300;;;;
2022/11/18 00:30:00;;;;;;;1.3;1.3;;;;;;;8.3;100.0;99300;;;;
2022/11/18 00:31:01;;;;;;;1.3;1.3;;;;;;;8.2;100.0;99310;;;;
2022/11/18 00:32:00;;;;;;;1.3;1.3;;;;;;;8.2;100.0;99310;;;;
2022/11/18 00:33:00;;;;;;;1.3;1.3;;;;;;;8.1;100.0;99310;;;;
2022/11/18 00:34:00;;;;;;;1.3;1.3;;;;;;;8.1;100.0;99310;;;;
2022/11/18 00:35:00;;;;;;;1.3;1.3;;;;;;;8.1;100.0;99320;;;;
2022/11/18 00:36:00;;;;;;;1.3;1.3;;;;;;;8.1;100.0;99320;;;;
2022/11/18 00:37:00;;;;;;;1.3;1.3;;;;;;;8.1;100.0;99320;;;;
2022/11/18 00:38:00;;;;;;;1.3;1.3;;;;;;;8.1;100.0;99320;;;;
2022/11/18 00:39:00;;;;;;;1.3;1.3;;;;;;;8.1;100.0;99320;;;;
2022/11/18 00:40:00;;;;;;;1.3;1.3;;;;;;;8.1;100.0;99320;;;;
2022/11/18 00:41:01;;;;;;;1.3;1.3;;;;;;;8.1;100.0;99320;;;;
2022/11/18 00:43:00;;;;;;;1.3;1.3;;;;;;;8.0;100.0;99320;;;;
2022/11/18 00:44:00;;;;;;;1.3;1.3;;;;;;;8.0;100.0;99320;;;;
2022/11/18 00:45:00;;;;;;;1.3;1.3;;;;;;;8.1;100.0;99330;;;;
2022/11/18 00:46:00;;;;;;;1.3;1.3;;;;;;;8.1;100.0;99330;;;;
2022/11/18 00:47:00;;;;;;;1.3;1.3;;;;;;;8.1;100.0;99340;;;;
2022/11/18 00:48:01;;;;;;;1.3;1.3;;;;;;;8.1;100.0;99340;;;;
2022/11/18 00:49:00;;;;;;;1.3;1.3;;;;;;;8.1;100.0;99340;;;;
2022/11/18 00:50:00;;;;;;;1.3;1.3;;;;;;;8.1;100.0;99340;;;;
2022/11/18 00:51:10;;;;;;;1.3;1.3;;;;;;;8.1;100.0;99340;;;;
2022/11/18 00:52:00;;;;;;;1.3;1.3;;;;;;;8.1;100.0;99340;;;;
2022/11/18 00:53:00;;;;;;;1.3;1.3;;;;;;;8.2;100.0;99340;;;;
2022/11/18 00:54:00;;;;;;;1.3;1.3;;;;;;;8.2;100.0;99340;;;;
2022/11/18 00:55:00;;;;;;;1.3;1.3;;;;;;;8.1;100.0;99340;;;;
2022/11/18 00:56:00;;;;;;;1.3;1.3;;;;;;;8.1;100.0;99340;;;;
2022/11/18 00:57:00;;;;;;;1.3;1.3;;;;;;;8.1;100.0;99340;;;;
2022/11/18 00:58:00;;;;;;;1.3;1.3;;;;;;;8.1;100.0;99340;;;;
2022/11/18 00:59:00;;;;;;;1.3;1.3;;;;;;;8.3;100.0;99340;;;;
2022/11/18 01:00:00;;;;;;;1.3;1.3;;;;;;;8.3;100.0;99340;;;;
2022/11/18 01:01:00;;;;;;;1.3;1.3;;;;;;;8.3;100.0;99340;;;;
2022/11/18 01:02:00;;;;;;;1.3;1.3;;;;;;;8.3;100.0;99340;;;;
2022/11/18 01:03:01;;;;;;;1.3;1.3;;;;;;;8.3;100.0;99350;;;;
2022/11/18 01:04:00;;;;;;;1.3;1.3;;;;;;;8.3;100.0;99350;;;;
2022/11/18 01:05:00;;;;;;;1.3;1.3;;;;;;;8.2;100.0;99350;;;;
2022/11/18 01:06:00;;;;;;;1.3;1.3;;;;;;;8.2;100.0;99350;;;;
2022/11/18 01:07:00;;;;;;;1.3;1.3;;;;;;;8.2;100.0;99350;;;;
2022/11/18 01:08:00;;;;;;;1.3;1.3;;;;;;;8.2;100.0;99350;;;;
2022/11/18 01:09:00;;;;;;;1.3;1.3;;;;;;;8.3;100.0;99350;;;;
2022/11/18 01:10:00;;;;;;;1.3;1.3;;;;;;;8.3;100.0;99350;;;;
2022/11/18 01:13:18;;;;;;;1.3;1.3;;;;;;;8.4;100.0;99350;;;;
2022/11/18 01:14:00;;;;;;;1.3;1.3;;;;;;;8.4;100.0;99360;;;;
2022/11/18 01:15:00;;;;;;;1.3;1.3;;;;;;;8.4;100.0;99360;;;;
2022/11/18 01:16:00;;;;;;;1.3;1.3;;;;;;;8.4;100.0;99360;;;;
2022/11/18 01:17:00;;;;;;;1.3;1.3;;;;;;;8.3;100.0;99360;;;;
2022/11/18 01:18:00;;;;;;;1.3;1.3;;;;;;;8.3;100.0;99360;;;;
2022/11/18 01:19:00;;;;;;;1.3;1.3;;;;;;;8.4;100.0;99360;;;;
2022/11/18 01:20:00;;;;;;;1.3;1.3;;;;;;;8.4;100.0;99360;;;;
2022/11/18 01:21:01;;;;;;;1.3;1.3;;;;;;;8.5;100.0;99360;;;;
2022/11/18 01:22:01;;;;;;;1.3;1.3;;;;;;;8.5;100.0;99360;;;;
2022/11/18 01:23:00;;;;;;;1.3;1.3;;;;;;;8.5;100.0;99370;;;;
2022/11/18 01:24:00;;;;;;;1.3;1.3;;;;;;;8.5;100.0;99370;;;;
2022/11/18 01:25:00;;;;;;;1.3;1.3;;;;;;;8.5;100.0;99370;;;;
2022/11/18 01:26:02;;;;;;;1.3;1.3;;;;;;;8.5;100.0;99370;;;;
2022/11/18 01:27:00;;;;;;;1.3;1.3;;;;;;;8.6;100.0;99380;;;;
2022/11/18 01:28:00;;;;;;;1.3;1.3;;;;;;;8.6;100.0;99380;;;;
2022/11/18 01:29:00;;;;;;;1.3;1.3;;;;;;;8.7;100.0;99380;;;;
2022/11/18 01:30:00;;;;;;;1.3;1.3;;;;;;;8.7;100.0;99380;;;;
2022/11/18 01:31:04;;;;;;;1.3;1.3;;;;;;;8.5;100.0;99390;;;;
2022/11/18 01:32:10;;;;;;;1.3;1.3;;;;;;;8.5;100.0;99390;;;;
2022/11/18 01:33:00;;;;;;;1.3;1.3;;;;;;;8.6;100.0;99380;;;;
2022/11/18 01:34:00;;;;;;;1.3;1.3;;;;;;;8.6;100.0;99380;;;;
2022/11/18 01:35:00;;;;;;;1.3;1.3;;;;;;;8.7;100.0;99390;;;;
2022/11/18 01:36:00;;;;;;;1.3;1.3;;;;;;;8.7;100.0;99390;;;;
2022/11/18 01:37:00;;;;;;;1.3;1.3;;;;;;;8.7;100.0;99390;;;;
2022/11/18 01:38:00;;;;;;;1.3;1.3;;;;;;;8.7;100.0;99390;;;;
2022/11/18 01:39:00;;;;;;;1.3;1.3;;;;;;;8.7;100.0;99390;;;;
2022/11/18 01:40:00;;;;;;;1.3;1.3;;;;;;;8.7;100.0;99390;;;;
2022/11/18 01:41:00;;;;;;;1.3;1.3;;;;;;;8.9;100.0;99390;;;;
2022/11/18 01:42:00;;;;;;;1.3;1.3;;;;;;;8.9;100.0;99390;;;;
2022/11/18 01:43:00;;;;;;;1.3;1.3;;;;;;;8.8;100.0;99390;;;;
2022/11/18 01:44:04;;;;;;;1.3;1.3;;;;;;;8.8;100.0;99390;;;;
2022/11/18 01:45:00;;;;;;;1.3;1.3;;;;;;;8.8;100.0;99390;;;;
2022/11/18 01:46:00;;;;;;;1.3;1.3;;;;;;;8.8;100.0;99390;;;;
2022/11/18 01:47:00;;;;;;;1.3;1.3;;;;;;;8.9;100.0;99400;;;;
2022/11/18 01:48:03;;;;;;;1.3;1.3;;;;;;;8.9;100.0;99400;;;;
2022/11/18 01:49:00;;;;;;;1.3;1.3;;;;;;;8.8;100.0;99400;;;;
2022/11/18 01:50:00;;;;;;;1.3;1.3;;;;;;;8.8;100.0;99400;;;;
2022/11/18 01:51:03;;;;;;;1.3;1.3;;;;;;;8.8;100.0;99400;;;;
2022/11/18 01:52:00;;;;;;;1.3;1.3;;;;;;;8.8;100.0;99400;;;;
2022/11/18 01:53:04;;;;;;;1.3;1.3;;;;;;;9.1;100.0;99400;;;;
2022/11/18 01:54:10;;;;;;;1.3;1.3;;;;;;;9.1;100.0;99400;;;;
2022/11/18 01:55:04;;;;;;;1.3;1.3;;;;;;;8.9;100.0;99410;;;;
2022/11/18 01:56:03;;;;;;;1.3;1.3;;;;;;;8.9;100.0;99410;;;;
2022/11/18 01:57:02;;;;;;;1.3;1.3;;;;;;;8.9;100.0;99400;;;;
2022/11/18 01:58:05;;;;;;;1.3;1.3;;;;;;;8.9;100.0;99400;;;;
2022/11/18 01:59:04;;;;;;;1.3;1.3;;;;;;;8.9;100.0;99400;;;;
2022/11/18 02:00:02;;;;;;;1.3;1.3;;;;;;;8.9;100.0;99400;;;;
2022/11/18 02:01:01;;;;;;;1.3;1.3;;;;;;;8.9;100.0;99410;;;;
2022/11/18 02:02:02;;;;;;;1.3;1.3;;;;;;;8.9;100.0;99410;;;;
2022/11/18 02:03:01;;;;;;;1.3;1.3;;;;;;;8.9;100.0;99410;;;;
2022/11/18 02:04:00;;;;;;;1.3;1.3;;;;;;;8.9;100.0;99410;;;;
2022/11/18 02:05:01;;;;;;;1.3;1.3;;;;;;;8.9;100.0;99410;;;;
2022/11/18 02:06:01;;;;;;;1.3;1.3;;;;;;;8.9;100.0;99410;;;;
2022/11/18 02:07:00;;;;;;;1.3;1.3;;;;;;;8.9;100.0;99410;;;;
2022/11/18 02:08:00;;;;;;;1.3;1.3;;;;;;;8.9;100.0;99410;;;;
2022/11/18 02:09:00;;;;;;;1.2;1.2;;;;;;;8.9;100.0;99410;;;;
2022/11/18 02:10:01;;;;;;;1.2;1.2;;;;;;;8.9;100.0;99410;;;;
2022/11/18 02:11:00;;;;;;;1.2;1.2;;;;;;;8.9;100.0;99410;;;;
2022/11/18 02:12:00;;;;;;;1.2;1.2;;;;;;;8.9;100.0;99410;;;;
2022/11/18 02:13:00;;;;;;;1.2;1.2;;;;;;;9.1;100.0;99420;;;;
2022/11/18 02:14:01;;;;;;;1.2;1.2;;;;;;;9.1;100.0;99420;;;;
2022/11/18 02:15:01;;;;;;;1.2;1.2;;;;;;;9.0;100.0;99420;;;;
2022/11/18 02:16:06;;;;;;;1.2;1.2;;;;;;;9.0;100.0;99420;;;;
2022/11/18 02:17:01;;;;;;;1.2;1.2;;;;;;;9.0;100.0;99420;;;;
2022/11/18 02:18:08;;;;;;;1.2;1.2;;;;;;;9.0;100.0;99420;;;;
2022/11/18 02:19:03;;;;;;;1.2;1.2;;;;;;;8.9;100.0;99420;;;;
2022/11/18 02:20:10;;;;;;;1.2;1.2;;;;;;;8.9;100.0;99420;;;;
2022/11/18 02:21:10;;;;;;;1.2;1.2;;;;;;;8.9;100.0;99420;;;;
2022/11/18 02:22:10;;;;;;;1.2;1.2;;;;;;;8.9;100.0;99420;;;;
2022/11/18 02:23:00;;;;;;;1.2;1.2;;;;;;;8.9;100.0;99420;;;;
2022/11/18 02:24:10;;;;;;;1.2;1.2;;;;;;;8.9;100.0;99420;;;;
2022/11/18 02:25:00;;;;;;;1.2;1.2;;;;;;;9.2;100.0;99430;;;;
2022/11/18 02:26:01;;;;;;;1.2;1.2;;;;;;;9.2;100.0;99430;;;;
2022/11/18 02:27:10;;;;;;;1.2;1.2;;;;;;;9.1;100.0;99430;;;;
2022/11/18 02:28:10;;;;;;;1.2;1.2;;;;;;;9.1;100.0;99430;;;;
2022/11/18 02:29:05;;;;;;;1.0;1.0;;;;;;;9.1;100.0;99430;;;;
2022/11/18 02:30:03;;;;;;;1.0;1.0;;;;;;;9.1;100.0;99430;;;;
2022/11/18 02:31:05;;;;;;;1.0;1.0;;;;;;;9.2;100.0;99430;;;;
2022/11/18 02:32:06;;;;;;;1.0;1.0;;;;;;;9.2;100.0;99430;;;;
2022/11/18 02:33:10;;;;;;;1.0;1.0;;;;;;;9.3;100.0;99440;;;;
2022/11/18 02:34:05;;;;;;;1.0;1.0;;;;;;;9.3;100.0;99440;;;;
2022/11/18 02:35:10;;;;;;;1.0;1.0;;;;;;;9.2;100.0;99440;;;;
2022/11/18 02:36:04;;;;;;;1.0;1.0;;;;;;;9.2;100.0;99440;;;;
2022/11/18 02:37:04;;;;;;;1.0;1.0;;;;;;;9.1;100.0;99430;;;;
2022/11/18 02:38:03;;;;;;;1.0;1.0;;;;;;;9.1;100.0;99430;;;;
2022/11/18 02:39:07;;;;;;;1.0;1.0;;;;;;;9.1;100.0;99440;;;;
2022/11/18 02:40:10;;;;;;;1.0;1.0;;;;;;;9.1;100.0;99440;;;;
2022/11/18 02:41:05;;;;;;;1.0;1.0;;;;;;;9.1;100.0;99440;;;;
2022/11/18 02:42:03;;;;;;;1.0;1.0;;;;;;;9.1;100.0;99440;;;;
2022/11/18 02:43:03;;;;;;;1.0;1.0;;;;;;;9.1;100.0;99440;;;;
2022/11/18 02:44:04;;;;;;;1.0;1.0;;;;;;;9.1;100.0;99440;;;;
2022/11/18 02:45:03;;;;;;;1.0;1.0;;;;;;;9.0;100.0;99450;;;;
2022/11/18 02:46:02;;;;;;;1.0;1.0;;;;;;;9.0;100.0;99450;;;;
2022/11/18 02:47:02;;;;;;;1.0;1.0;;;;;;;9.4;100.0;99450;;;;
2022/11/18 02:48:03;;;;;;;1.0;1.0;;;;;;;9.4;100.0;99450;;;;
2022/11/18 02:49:01;;;;;;;1.0;1.0;;;;;;;9.3;100.0;99440;;;;
2022/11/18 02:50:02;;;;;;;1.0;1.0;;;;;;;9.3;100.0;99440;;;;
2022/11/18 02:51:02;;;;;;;1.0;1.0;;;;;;;9.3;100.0;99450;;;;
2022/11/18 02:52:01;;;;;;;1.0;1.0;;;;;;;9.3;100.0;99450;;;;
2022/11/18 02:53:02;;;;;;;1.0;1.0;;;;;;;9.2;100.0;99450;;;;
2022/11/18 02:54:01;;;;;;;1.0;1.0;;;;;;;9.2;100.0;99450;;;;
2022/11/18 02:55:01;;;;;;;1.0;1.0;;;;;;;9.2;100.0;99450;;;;
2022/11/18 02:56:01;;;;;;;1.0;1.0;;;;;;;9.2;100.0;99450;;;;
2022/11/18 02:57:01;;;;;;;1.0;1.0;;;;;;;9.2;100.0;99450;;;;
2022/11/18 02:58:01;;;;;;;1.0;1.0;;;;;;;9.2;100.0;99450;;;;
2022/11/18 02:59:00;;;;;;;1.0;1.0;;;;;;;9.3;100.0;99450;;;;
2022/11/18 03:00:00;;;;;;;1.0;1.0;;;;;;;9.3;100.0;99450;;;;
2022/11/18 03:01:00;;;;;;;1.0;1.0;;;;;;;9.2;100.0;99450;;;;
2022/11/18 03:02:00;;;;;;;1.0;1.0;;;;;;;9.2;100.0;99450;;;;
2022/11/18 03:03:10;;;;;;;1.0;1.0;;;;;;;9.3;100.0;99450;;;;
2022/11/18 03:04:00;;;;;;;1.0;1.0;;;;;;;9.3;100.0;99450;;;;
2022/11/18 03:05:00;;;;;;;1.0;1.0;;;;;;;9.4;100.0;99460;;;;
2022/11/18 03:06:05;;;;;;;1.0;1.0;;;;;;;9.4;100.0;99460;;;;
2022/11/18 03:07:00;;;;;;;1.0;1.0;;;;;;;9.4;100.0;99450;;;;
2022/11/18 03:08:06;;;;;;;1.0;1.0;;;;;;;9.4;100.0;99450;;;;
2022/11/18 03:09:05;;;;;;;1.0;1.0;;;;;;;9.3;100.0;99460;;;;
2022/11/18 03:10:00;;;;;;;1.0;1.0;;;;;;;9.3;100.0;99460;;;;
2022/11/18 03:11:05;;;;;;;1.0;1.0;;;;;;;9.3;100.0;99460;;;;
2022/11/18 03:12:00;;;;;;;1.0;1.0;;;;;;;9.3;100.0;99460;;;;
2022/11/18 03:13:04;;;;;;;1.0;1.0;;;;;;;9.4;100.0;99460;;;;
2022/11/18 03:14:00;;;;;;;1.0;1.0;;;;;;;9.4;100.0;99460;;;;
2022/11/18 03:15:10;;;;;;;1.0;1.0;;;;;;;9.3;100.0;99460;;;;
2022/11/18 03:16:03;;;;;;;1.0;1.0;;;;;;;9.3;100.0;99460;;;;
2022/11/18 03:17:02;;;;;;;1.0;1.0;;;;;;;9.2;100.0;99460;;;;
2022/11/18 03:18:10;;;;;;;1.0;1.0;;;;;;;9.2;100.0;99460;;;;
2022/11/18 03:19:01;;;;;;;1.0;1.0;;;;;;;9.2;100.0;99470;;;;
2022/11/18 03:20:07;;;;;;;1.0;1.0;;;;;;;9.2;100.0;99470;;;;
2022/11/18 03:21:07;;;;;;;1.0;1.0;;;;;;;9.3;100.0;99470;;;;
2022/11/18 03:22:06;;;;;;;1.0;1.0;;;;;;;9.3;100.0;99470;;;;
2022/11/18 03:23:05;;;;;;;1.0;1.0;;;;;;;9.3;100.0;99470;;;;
2022/11/18 03:24:08;;;;;;;1.0;1.0;;;;;;;9.3;100.0;99470;;;;
2022/11/18 03:25:10;;;;;;;1.0;1.0;;;;;;;9.3;100.0;99470;;;;
2022/11/18 03:26:04;;;;;;;1.0;1.0;;;;;;;9.3;100.0;99470;;;;
2022/11/18 03:27:06;;;;;;;1.0;1.0;;;;;;;9.3;100.0;99480;;;;
2022/11/18 03:28:07;;;;;;;1.0;1.0;;;;;;;9.3;100.0;99480;;;;
2022/11/18 03:29:04;;;;;;;1.0;1.0;;;;;;;9.4;100.0;99480;;;;
2022/11/18 03:30:04;;;;;;;1.0;1.0;;;;;;;9.4;100.0;99480;;;;
2022/11/18 03:31:04;;;;;;;1.0;1.0;;;;;;;9.3;100.0;99480;;;;
2022/11/18 03:32:04;;;;;;;1.0;1.0;;;;;;;9.3;100.0;99480;;;;
2022/11/18 03:33:03;;;;;;;1.0;1.0;;;;;;;9.3;100.0;99480;;;;
2022/11/18 03:34:04;;;;;;;1.0;1.0;;;;;;;9.3;100.0;99480;;;;
2022/11/18 03:35:02;;;;;;;1.0;1.0;;;;;;;9.4;100.0;99490;;;;
2022/11/18 03:36:03;;;;;;;1.0;1.0;;;;;;;9.4;100.0;99490;;;;
2022/11/18 03:37:05;;;;;;;1.0;1.0;;;;;;;9.3;100.0;99490;;;;
2022/11/18 03:38:03;;;;;;;1.0;1.0;;;;;;;9.3;100.0;99490;;;;
2022/11/18 03:39:02;;;;;;;1.0;1.0;;;;;;;9.3;100.0;99500;;;;
2022/11/18 03:40:05;;;;;;;1.0;1.0;;;;;;;9.3;100.0;99500;;;;
2022/11/18 03:41:03;;;;;;;1.0;1.0;;;;;;;9.3;100.0;99490;;;;
2022/11/18 03:42:04;;;;;;;1.0;1.0;;;;;;;9.3;100.0;99490;;;;
2022/11/18 03:43:03;;;;;;;1.0;1.0;;;;;;;9.5;100.0;99500;;;;
2022/11/18 03:44:04;;;;;;;1.0;1.0;;;;;;;9.5;100.0;99500;;;;
2022/11/18 03:45:10;;;;;;;1.0;1.0;;;;;;;9.4;100.0;99500;;;;
2022/11/18 03:46:10;;;;;;;1.0;1.0;;;;;;;9.4;100.0;99500;;;;
2022/11/18 03:47:05;;;;;;;1.0;1.0;;;;;;;9.4;100.0;99500;;;;
2022/11/18 03:48:10;;;;;;;1.0;1.0;;;;;;;9.4;100.0;99500;;;;
2022/11/18 03:49:00;;;;;;;1.7;1.7;;;;;;;9.4;100.0;99510;;;;
2022/11/18 03:50:05;;;;;;;1.7;1.7;;;;;;;9.4;100.0;99510;;;;
2022/11/18 03:51:09;;;;;;;1.7;1.7;;;;;;;9.4;100.0;99510;;;;
2022/11/18 03:52:04;;;;;;;1.7;1.7;;;;;;;9.4;100.0;99510;;;;
2022/11/18 03:53:01;;;;;;;1.7;1.7;;;;;;;9.4;100.0;99520;;;;
2022/11/18 03:54:03;;;;;;;1.7;1.7;;;;;;;9.4;100.0;99520;;;;
2022/11/18 03:55:04;;;;;;;1.7;1.7;;;;;;;9.4;100.0;99510;;;;
2022/11/18 03:56:05;;;;;;;1.7;1.7;;;;;;;9.4;100.0;99510;;;;
2022/11/18 03:57:04;;;;;;;1.7;1.7;;;;;;;9.4;100.0;99520;;;;
2022/11/18 03:58:10;;;;;;;1.7;1.7;;;;;;;9.4;100.0;99520;;;;
2022/11/18 03:59:07;;;;;;;1.7;1.7;;;;;;;9.4;100.0;99530;;;;
2022/11/18 04:00:08;;;;;;;1.7;1.7;;;;;;;9.4;100.0;99530;;;;
2022/11/18 04:01:03;;;;;;;1.7;1.7;;;;;;;9.4;100.0;99530;;;;
2022/11/18 04:02:05;;;;;;;1.7;1.7;;;;;;;9.4;100.0;99530;;;;
2022/11/18 04:03:00;;;;;;;1.7;1.7;;;;;;;9.4;100.0;99530;;;;
2022/11/18 04:04:00;;;;;;;1.7;1.7;;;;;;;9.4;100.0;99530;;;;
2022/11/18 04:05:01;;;;;;;1.7;1.7;;;;;;;9.3;100.0;99530;;;;
2022/11/18 04:06:04;;;;;;;1.7;1.7;;;;;;;9.3;100.0;99530;;;;
2022/11/18 04:07:05;;;;;;;1.7;1.7;;;;;;;9.4;100.0;99540;;;;
2022/11/18 04:08:01;;;;;;;1.7;1.7;;;;;;;9.4;100.0;99540;;;;
2022/11/18 04:09:03;;;;;;;1.1;1.1;;;;;;;9.4;100.0;99540;;;;
2022/11/18 04:10:01;;;;;;;1.1;1.1;;;;;;;9.4;100.0;99540;;;;
2022/11/18 04:11:05;;;;;;;1.1;1.1;;;;;;;9.4;100.0;99540;;;;
2022/11/18 04:12:05;;;;;;;1.1;1.1;;;;;;;9.4;100.0;99540;;;;
2022/11/18 04:13:06;;;;;;;1.1;1.1;;;;;;;9.3;100.0;99540;;;;
2022/11/18 04:14:01;;;;;;;1.1;1.1;;;;;;;9.3;100.0;99540;;;;
2022/11/18 04:15:00;;;;;;;1.1;1.1;;;;;;;9.3;100.0;99540;;;;
2022/11/18 04:16:00;;;;;;;1.1;1.1;;;;;;;9.3;100.0;99540;;;;
2022/11/18 04:17:04;;;;;;;1.1;1.1;;;;;;;9.3;100.0;99540;;;;
2022/11/18 04:18:00;;;;;;;1.1;1.1;;;;;;;9.3;100.0;99540;;;;
2022/11/18 04:19:06;;;;;;;1.1;1.1;;;;;;;9.3;100.0;99540;;;;
2022/11/18 04:20:00;;;;;;;1.1;1.1;;;;;;;9.3;100.0;99540;;;;
2022/11/18 04:21:00;;;;;;;1.1;1.1;;;;;;;9.4;100.0;99540;;;;
2022/11/18 04:22:00;;;;;;;1.1;1.1;;;;;;;9.4;100.0;99540;;;;
2022/11/18 04:23:00;;;;;;;1.1;1.1;;;;;;;9.4;100.0;99550;;;;
2022/11/18 04:24:00;;;;;;;1.1;1.1;;;;;;;9.4;100.0;99550;;;;
2022/11/18 04:25:00;;;;;;;1.1;1.1;;;;;;;9.3;100.0;99550;;;;
2022/11/18 04:26:00;;;;;;;1.1;1.1;;;;;;;9.3;100.0;99550;;;;
2022/11/18 04:27:01;;;;;;;1.1;1.1;;;;;;;9.4;100.0;99550;;;;
2022/11/18 04:28:00;;;;;;;1.1;1.1;;;;;;;9.4;100.0;99550;;;;
2022/11/18 04:29:00;;;;;;;1.3;1.3;;;;;;;9.3;100.0;99550;;;;
2022/11/18 04:30:00;;;;;;;1.3;1.3;;;;;;;9.3;100.0;99550;;;;
2022/11/18 04:31:00;;;;;;;1.3;1.3;;;;;;;9.3;100.0;99550;;;;
2022/11/18 04:32:00;;;;;;;1.3;1.3;;;;;;;9.3;100.0;99550;;;;
2022/11/18 04:33:00;;;;;;;1.3;1.3;;;;;;;9.3;100.0;99550;;;;
2022/11/18 04:34:00;;;;;;;1.3;1.3;;;;;;;9.3;100.0;99550;;;;
2022/11/18 04:35:00;;;;;;;1.3;1.3;;;;;;;9.3;100.0;99560;;;;
2022/11/18 04:36:00;;;;;;;1.3;1.3;;;;;;;9.3;100.0;99560;;;;
2022/11/18 04:37:00;;;;;;;1.3;1.3;;;;;;;9.3;100.0;99560;;;;
2022/11/18 04:38:00;;;;;;;1.3;1.3;;;;;;;9.3;100.0;99560;;;;
2022/11/18 04:39:00;;;;;;;1.3;1.3;;;;;;;9.3;100.0;99570;;;;
2022/11/18 04:40:00;;;;;;;1.3;1.3;;;;;;;9.3;100.0;99570;;;;
2022/11/18 04:41:00;;;;;;;1.3;1.3;;;;;;;9.2;100.0;99570;;;;
2022/11/18 04:42:00;;;;;;;1.3;1.3;;;;;;;9.2;100.0;99570;;;;
2022/11/18 04:43:00;;;;;;;1.3;1.3;;;;;;;9.1;100.0;99570;;;;
2022/11/18 04:44:11;;;;;;;1.3;1.3;;;;;;;9.1;100.0;99570;;;;
2022/11/18 04:45:00;;;;;;;1.3;1.3;;;;;;;9.2;100.0;99570;;;;
2022/11/18 04:46:00;;;;;;;1.3;1.3;;;;;;;9.2;100.0;99570;;;;
2022/11/18 04:47:01;;;;;;;1.3;1.3;;;;;;;9.1;100.0;99570;;;;
2022/11/18 04:48:04;;;;;;;1.3;1.3;;;;;;;9.1;100.0;99570;;;;
2022/11/18 04:49:00;;;;;;;1.0;1.0;;;;;;;9.1;100.0;99570;;;;
2022/11/18 04:50:00;;;;;;;1.0;1.0;;;;;;;9.1;100.0;99570;;;;
2022/11/18 04:51:03;;;;;;;1.0;1.0;;;;;;;9.2;100.0;99580;;;;
2022/11/18 04:52:00;;;;;;;1.0;1.0;;;;;;;9.2;100.0;99580;;;;
2022/11/18 04:53:00;;;;;;;1.0;1.0;;;;;;;9.1;100.0;99580;;;;
2022/11/18 04:54:00;;;;;;;1.0;1.0;;;;;;;9.1;100.0;99580;;;;
2022/11/18 04:55:00;;;;;;;1.0;1.0;;;;;;;9.0;100.0;99580;;;;
2022/11/18 04:56:03;;;;;;;1.0;1.0;;;;;;;9.0;100.0;99580;;;;
2022/11/18 04:57:00;;;;;;;1.0;1.0;;;;;;;9.0;100.0;99580;;;;
2022/11/18 04:58:00;;;;;;;1.0;1.0;;;;;;;9.0;100.0;99580;;;;
2022/11/18 04:59:01;;;;;;;1.0;1.0;;;;;;;8.9;100.0;99590;;;;
2022/11/18 05:00:00;;;;;;;1.0;1.0;;;;;;;8.9;100.0;99590;;;;
2022/11/18 05:01:00;;;;;;;1.0;1.0;;;;;;;9.0;100.0;99590;;;;
2022/11/18 05:02:00;;;;;;;1.0;1.0;;;;;;;9.0;100.0;99590;;;;
2022/11/18 05:03:00;;;;;;;1.0;1.0;;;;;;;8.9;100.0;99600;;;;
2022/11/18 05:04:01;;;;;;;1.0;1.0;;;;;;;8.9;100.0;99600;;;;
2022/11/18 05:05:00;;;;;;;1.0;1.0;;;;;;;9.0;100.0;99600;;;;
2022/11/18 05:06:00;;;;;;;1.0;1.0;;;;;;;9.0;100.0;99600;;;;
2022/11/18 05:07:01;;;;;;;1.0;1.0;;;;;;;9.0;100.0;99600;;;;
2022/11/18 05:08:00;;;;;;;1.0;1.0;;;;;;;9.0;100.0;99600;;;;
2022/11/18 05:09:00;;;;;;;1.2;1.2;;;;;;;8.9;100.0;99600;;;;
2022/11/18 05:10:00;;;;;;;1.2;1.2;;;;;;;8.9;100.0;99600;;;;
2022/11/18 05:13:00;;;;;;;1.2;1.2;;;;;;;8.9;100.0;99600;;;;
2022/11/18 05:14:00;;;;;;;1.2;1.2;;;;;;;8.9;100.0;99600;;;;
2022/11/18 05:15:00;;;;;;;1.2;1.2;;;;;;;8.9;100.0;99610;;;;
2022/11/18 05:16:00;;;;;;;1.2;1.2;;;;;;;8.9;100.0;99610;;;;
2022/11/18 05:17:01;;;;;;;1.2;1.2;;;;;;;9.0;100.0;99610;;;;
2022/11/18 05:18:00;;;;;;;1.2;1.2;;;;;;;9.0;100.0;99610;;;;
2022/11/18 05:19:02;;;;;;;1.2;1.2;;;;;;;9.0;100.0;99620;;;;
2022/11/18 05:20:00;;;;;;;1.2;1.2;;;;;;;9.0;100.0;99620;;;;
2022/11/18 05:21:03;;;;;;;1.2;1.2;;;;;;;9.0;100.0;99620;;;;
2022/11/18 05:22:00;;;;;;;1.2;1.2;;;;;;;9.0;100.0;99620;;;;
2022/11/18 05:23:00;;;;;;;1.2;1.2;;;;;;;9.0;100.0;99620;;;;
2022/11/18 05:24:01;;;;;;;1.2;1.2;;;;;;;9.0;100.0;99620;;;;
2022/11/18 05:25:00;;;;;;;1.2;1.2;;;;;;;8.9;100.0;99620;;;;
2022/11/18 05:26:03;;;;;;;1.2;1.2;;;;;;;8.9;100.0;99620;;;;
2022/11/18 05:27:00;;;;;;;1.2;1.2;;;;;;;9.0;100.0;99620;;;;
2022/11/18 05:28:00;;;;;;;1.2;1.2;;;;;;;9.0;100.0;99620;;;;
2022/11/18 05:29:00;;;;;;;1.3;1.3;;;;;;;9.1;100.0;99630;;;;
2022/11/18 05:30:00;;;;;;;1.3;1.3;;;;;;;9.1;100.0;99630;;;;
2022/11/18 05:31:05;;;;;;;1.3;1.3;;;;;;;9.0;100.0;99630;;;;
2022/11/18 05:32:00;;;;;;;1.3;1.3;;;;;;;9.0;100.0;99630;;;;
2022/11/18 05:33:00;;;;;;;1.3;1.3;;;;;;;9.0;100.0;99630;;;;
2022/11/18 05:34:00;;;;;;;1.3;1.3;;;;;;;9.0;100.0;99630;;;;
2022/11/18 05:35:00;;;;;;;1.3;1.3;;;;;;;8.9;100.0;99630;;;;
2022/11/18 05:36:09;;;;;;;1.3;1.3;;;;;;;8.9;100.0;99630;;;;
2022/11/18 05:37:00;;;;;;;1.3;1.3;;;;;;;9.0;100.0;99630;;;;
2022/11/18 05:38:00;;;;;;;1.3;1.3;;;;;;;9.0;100.0;99630;;;;
2022/11/18 05:39:00;;;;;;;1.3;1.3;;;;;;;8.9;100.0;99630;;;;
2022/11/18 05:40:00;;;;;;;1.3;1.3;;;;;;;8.9;100.0;99630;;;;
2022/11/18 05:41:00;;;;;;;1.3;1.3;;;;;;;8.8;100.0;99630;;;;
2022/11/18 05:44:00;;;;;;;1.3;1.3;;;;;;;8.8;100.0;99630;;;;
2022/11/18 05:45:00;;;;;;;1.3;1.3;;;;;;;8.8;100.0;99630;;;;
2022/11/18 05:46:00;;;;;;;1.3;1.3;;;;;;;8.8;100.0;99630;;;;
2022/11/18 05:47:00;;;;;;;1.3;1.3;;;;;;;8.6;100.0;99630;;;;
2022/11/18 05:48:00;;;;;;;1.3;1.3;;;;;;;8.6;100.0;99630;;;;
2022/11/18 05:49:00;;;;;;;1.1;1.1;;;;;;;8.6;100.0;99640;;;;
2022/11/18 05:50:00;;;;;;;1.1;1.1;;;;;;;8.6;100.0;99640;;;;
2022/11/18 05:51:00;;;;;;;1.1;1.1;;;;;;;8.6;100.0;99640;;;;
2022/11/18 05:52:00;;;;;;;1.1;1.1;;;;;;;8.6;100.0;99640;;;;
2022/11/18 05:53:01;;;;;;;1.1;1.1;;;;;;;8.6;100.0;99640;;;;
2022/11/18 05:54:02;;;;;;;1.1;1.1;;;;;;;8.6;100.0;99640;;;;
2022/11/18 05:55:00;;;;;;;1.1;1.1;;;;;;;8.5;100.0;99640;;;;
2022/11/18 05:56:10;;;;;;;1.1;1.1;;;;;;;8.5;100.0;99640;;;;
2022/11/18 05:57:00;;;;;;;1.1;1.1;;;;;;;8.6;100.0;99640;;;;
2022/11/18 05:58:00;;;;;;;1.1;1.1;;;;;;;8.6;100.0;99640;;;;
2022/11/18 05:59:00;;;;;;;1.1;1.1;;;;;;;8.4;100.0;99650;;;;
2022/11/18 06:00:00;;;;;;;1.1;1.1;;;;;;;8.4;100.0;99650;;;;
2022/11/18 06:01:04;;;;;;;1.1;1.1;;;;;;;8.4;100.0;99650;;;;
2022/11/18 06:02:03;;;;;;;1.1;1.1;;;;;;;8.4;100.0;99650;;;;
2022/11/18 06:03:00;;;;;;;1.1;1.1;;;;;;;8.3;100.0;99660;;;;
2022/11/18 06:04:03;;;;;;;1.1;1.1;;;;;;;8.3;100.0;99660;;;;
2022/11/18 06:05:02;;;;;;;1.1;1.1;;;;;;;8.2;100.0;99660;;;;
2022/11/18 06:06:01;;;;;;;1.1;1.1;;;;;;;8.2;100.0;99660;;;;
2022/11/18 06:07:04;;;;;;;1.1;1.1;;;;;;;8.3;100.0;99660;;;;
2022/11/18 06:08:01;;;;;;;1.1;1.1;;;;;;;8.3;100.0;99660;;;;
2022/11/18 06:09:02;;;;;;;1.1;1.1;;;;;;;8.3;100.0;99660;;;;
2022/11/18 06:10:05;;;;;;;1.1;1.1;;;;;;;8.3;100.0;99660;;;;
2022/11/18 06:11:00;;;;;;;1.1;1.1;;;;;;;8.3;100.0;99670;;;;
2022/11/18 06:12:01;;;;;;;1.1;1.1;;;;;;;8.3;100.0;99670;;;;
2022/11/18 06:13:03;;;;;;;1.1;1.1;;;;;;;8.2;100.0;99670;;;;
2022/11/18 06:14:02;;;;;;;1.1;1.1;;;;;;;8.2;100.0;99670;;;;
2022/11/18 06:15:02;;;;;;;1.1;1.1;;;;;;;8.3;100.0;99680;;;;
2022/11/18 06:16:00;;;;;;;1.1;1.1;;;;;;;8.3;100.0;99680;;;;
2022/11/18 06:17:01;;;;;;;1.1;1.1;;;;;;;8.2;100.0;99680;;;;
2022/11/18 06:18:02;;;;;;;1.1;1.1;;;;;;;8.2;100.0;99680;;;;
2022/11/18 06:19:01;;;;;;;1.1;1.1;;;;;;;8.1;100.0;99680;;;;
2022/11/18 06:20:01;;;;;;;1.1;1.1;;;;;;;8.1;100.0;99680;;;;
2022/11/18 06:21:02;;;;;;;1.1;1.1;;;;;;;8.2;100.0;99690;;;;
2022/11/18 06:22:00;;;;;;;1.1;1.1;;;;;;;8.2;100.0;99690;;;;
2022/11/18 06:23:00;;;;;;;1.1;1.1;;;;;;;8.1;100.0;99700;;;;
2022/11/18 06:24:01;;;;;;;1.1;1.1;;;;;;;8.1;100.0;99700;;;;
2022/11/18 06:25:00;;;;;;;1.1;1.1;;;;;;;8.0;100.0;99690;;;;
2022/11/18 06:26:00;;;;;;;1.1;1.1;;;;;;;8.0;100.0;99690;;;;
2022/11/18 06:27:00;;;;;;;1.1;1.1;;;;;;;8.0;100.0;99700;;;;
2022/11/18 06:28:01;;;;;;;1.3;1.3;;;;;;;8.0;100.0;99700;;;;
2022/11/18 06:29:00;;;;;;;1.3;1.3;;;;;;;8.0;100.0;99700;;;;
2022/11/18 06:30:00;;;;;;;1.3;1.3;;;;;;;8.0;100.0;99700;;;;
2022/11/18 06:31:00;;;;;;;1.3;1.3;;;;;;;7.9;100.0;99700;;;;
2022/11/18 06:32:00;;;;;;;1.3;1.3;;;;;;;7.9;100.0;99700;;;;
2022/11/18 06:33:00;;;;;;;1.3;1.3;;;;;;;8.0;100.0;99700;;;;
2022/11/18 06:34:00;;;;;;;1.3;1.3;;;;;;;8.0;100.0;99700;;;;
2022/11/18 06:35:00;;;;;;;1.3;1.3;;;;;;;7.8;100.0;99700;;;;
2022/11/18 06:36:00;;;;;;;1.3;1.3;;;;;;;7.8;100.0;99700;;;;
2022/11/18 06:37:10;;;;;;;1.3;1.3;;;;;;;7.9;100.0;99710;;;;
2022/11/18 06:38:00;;;;;;;1.3;1.3;;;;;;;7.9;100.0;99710;;;;
2022/11/18 06:39:02;;;;;;;1.3;1.3;;;;;;;8.0;100.0;99710;;;;
2022/11/18 06:40:00;;;;;;;1.3;1.3;;;;;;;8.0;100.0;99710;;;;
2022/11/18 06:41:00;;;;;;;1.3;1.3;;;;;;;8.0;100.0;99710;;;;
2022/11/18 06:42:00;;;;;;;1.3;1.3;;;;;;;8.0;100.0;99710;;;;
2022/11/18 06:44:00;;;;;;;1.3;1.3;;;;;;;7.9;100.0;99710;;;;
2022/11/18 06:45:01;;;;;;;1.3;1.3;;;;;;;8.0;100.0;99710;;;;
2022/11/18 06:47:01;;;;;;;1.3;1.3;;;;;;;7.8;100.0;99720;;;;